Time;durP1;ratioP1;P1;durP2;ratioP2;P2;SDS_P1;SDS_P2;PMS_P1;PMS_P2;Temp;Humidity;BMP_temperature;BMP_pressure;BME280_temperature;BME280_humidity;BME280_pressure;Samples;Min_cycle;Max_cycle;Signal;HPM_P1;HPM_P2
2022/05/11 00:00:05;;;;;;;;;;;;;;;22.20;43.94;100368.09;2083639;28;712;-55
2022/05/11 00:01:12;;;;;;;;;;;;;;;22.19;43.34;100369.06;2083512;28;791;-55
2022/05/11 00:02:12;;;;;;;;;;;;;;;22.18;43.93;100366.44;2083462;28;1423;-55
2022/05/11 00:03:12;;;;;;;;;;;;;;;22.18;43.31;100363.75;2083284;28;807;-55
2022/05/11 00:04:13;;;;;;;;;;;;;;;22.17;43.28;100376.34;2083285;28;843;-54
2022/05/11 00:05:14;;;;;;;;;;;;;;;22.17;43.50;100365.56;2083449;28;886;-55
2022/05/11 00:06:14;;;;;;;;;;;;;;;22.17;43.97;100359.31;2083499;28;862;-55
2022/05/11 00:07:14;;;;;;;;;;;;;;;22.15;43.36;100355.81;2083433;28;580;-54
2022/05/11 00:08:14;;;;;;;;;;;;;;;22.15;44.00;100355.81;2083492;28;819;-55
2022/05/11 00:09:15;;;;;;;;;;;;;;;22.14;43.44;100351.34;2083468;28;886;-55
2022/05/11 00:10:15;;;;;;;;;;;;;;;22.14;43.55;100348.66;2083442;28;803;-55
2022/05/11 00:11:15;;;;;;;;;;;;;;;22.15;43.28;100336.91;2083338;28;1897;-55
2022/05/11 00:12:16;;;;;;;;;;;;;;;22.15;43.44;100326.13;2083434;28;631;-55
2022/05/11 00:13:16;;;;;;;;;;;;;;;22.14;43.15;100332.47;2083418;28;1111;-55
2022/05/11 00:14:16;;;;;;;;;;;;;;;22.14;43.43;100332.47;2083408;28;827;-55
2022/05/11 00:15:19;;;;;;;;;;;;;;;22.14;43.59;100317.13;2083431;28;756;-55
2022/05/11 00:16:19;;;;;;;;;;;;;;;22.13;44.07;100319.94;2083405;28;1041;-54
2022/05/11 00:17:19;;;;;;;;;;;;;;;22.14;44.06;100316.28;2083391;28;1060;-55
2022/05/11 00:18:19;;;;;;;;;;;;;;;22.12;43.79;100315.47;2083347;28;726;-55
2022/05/11 00:19:21;;;;;;;;;;;;;;;22.12;44.16;100308.25;2083347;28;973;-55
2022/05/11 00:20:23;;;;;;;;;;;;;;;22.11;43.42;100306.50;2083339;28;795;-55
2022/05/11 00:21:23;;;;;;;;;;;;;;;22.10;43.57;100299.34;2083362;28;847;-55
2022/05/11 00:22:23;;;;;;;;;;;;;;;22.09;43.53;100303.00;2083352;28;843;-55
2022/05/11 00:23:23;;;;;;;;;;;;;;;22.10;43.46;100303.91;2083267;28;799;-54
2022/05/11 00:24:25;;;;;;;;;;;;;;;22.09;43.47;100296.75;2083377;28;993;-55
2022/05/11 00:25:27;;;;;;;;;;;;;;;22.10;44.23;100296.66;2083372;28;795;-55
2022/05/11 00:26:27;;;;;;;;;;;;;;;22.10;44.00;100301.19;2083233;28;1284;-55
2022/05/11 00:27:27;;;;;;;;;;;;;;;22.09;43.69;100299.44;2083321;28;959;-54
2022/05/11 00:28:27;;;;;;;;;;;;;;;22.09;44.20;100299.44;2083316;28;819;-55
2022/05/11 00:29:27;;;;;;;;;;;;;;;22.10;44.07;100303.91;2083313;28;871;-55
2022/05/11 00:30:28;;;;;;;;;;;;;;;22.09;44.03;100307.53;2083275;28;1976;-55
2022/05/11 00:31:29;;;;;;;;;;;;;;;22.08;43.76;100312.03;2083231;28;843;-55
2022/05/11 00:32:29;;;;;;;;;;;;;;;22.09;43.47;100326.41;2083215;28;1241;-55
2022/05/11 00:33:29;;;;;;;;;;;;;;;22.08;43.61;100335.47;2083252;28;1083;-55
2022/05/11 00:34:29;;;;;;;;;;;;;;;22.08;44.09;100335.47;2083265;28;835;-55
2022/05/11 00:35:30;;;;;;;;;;;;;;;22.08;43.47;100341.72;2083217;28;887;-55
2022/05/11 00:36:31;;;;;;;;;;;;;;;22.06;43.66;100333.72;2083216;28;712;-55
2022/05/11 00:37:31;;;;;;;;;;;;;;;22.05;44.38;100329.25;2083174;28;1278;-55
2022/05/11 00:38:31;;;;;;;;;;;;;;;22.05;43.61;100328.41;2083198;28;831;-55
2022/05/11 00:39:33;;;;;;;;;;;;;;;22.06;43.60;100324.75;2083232;28;871;-55
2022/05/11 00:40:38;;;;;;;;;;;;;;;22.07;43.77;100331.91;2083192;28;799;-55
2022/05/11 00:41:41;;;;;;;;;;;;;;;22.05;43.92;100329.25;2083129;28;1374;-55
2022/05/11 00:42:41;;;;;;;;;;;;;;;22.05;44.28;100334.66;2083215;28;993;-55
2022/05/11 00:43:50;;;;;;;;;;;;;;;22.04;44.21;100332.91;2083138;28;970;-55
2022/05/11 00:44:50;;;;;;;;;;;;;;;22.04;43.98;100329.34;2083173;28;796;-55
2022/05/11 00:45:50;;;;;;;;;;;;;;;22.04;43.65;100322.13;2083191;28;847;-55
2022/05/11 00:46:50;;;;;;;;;;;;;;;22.03;43.93;100328.47;2083150;28;854;-55
2022/05/11 00:47:52;;;;;;;;;;;;;;;22.02;43.64;100323.16;2083171;28;823;-55
2022/05/11 00:50:22;;;;;;;;;;;;;;;22.03;43.83;100333.00;2083183;28;630;-55
2022/05/11 00:51:24;;;;;;;;;;;;;;;22.03;43.71;100333.84;2090647;28;1886;-55
2022/05/11 00:52:34;;;;;;;;;;;;;;;22.04;43.80;100340.13;2090583;28;866;-55
2022/05/11 00:53:35;;;;;;;;;;;;;;;22.02;43.81;100339.34;2083117;28;815;-55
2022/05/11 00:54:38;;;;;;;;;;;;;;;22.01;43.94;100337.59;2083096;28;875;-55
2022/05/11 00:55:43;;;;;;;;;;;;;;;22.01;43.93;100340.28;2083114;28;1037;-55
2022/05/11 00:56:46;;;;;;;;;;;;;;;22.01;43.66;100337.59;2083146;28;889;-54
2022/05/11 00:57:46;;;;;;;;;;;;;;;22.01;44.54;100348.38;2083082;28;993;-55
2022/05/11 00:58:50;;;;;;;;;;;;;;;22.00;43.75;100347.47;2083045;28;819;-54
2022/05/11 00:59:52;;;;;;;;;;;;;;;22.01;43.79;100349.22;2083100;28;855;-55
2022/05/11 01:00:53;;;;;;;;;;;;;;;22.01;44.17;100346.53;2083182;28;683;-55
2022/05/11 01:01:58;;;;;;;;;;;;;;;22.01;43.92;100348.38;2083036;28;807;-55
2022/05/11 01:03:04;;;;;;;;;;;;;;;22.01;44.36;100345.66;2083219;28;776;-55
2022/05/11 01:04:12;;;;;;;;;;;;;;;22.00;43.96;100347.47;2083012;28;867;-55
2022/05/11 01:05:13;;;;;;;;;;;;;;;21.99;43.86;100352.97;2083221;28;1041;-55
2022/05/11 01:06:13;;;;;;;;;;;;;;;22.01;44.31;100348.38;2083164;28;751;-55
2022/05/11 01:07:14;;;;;;;;;;;;;;;22.00;43.86;100350.19;2082994;28;1036;-55
2022/05/11 01:08:16;;;;;;;;;;;;;;;21.99;44.18;100356.50;2082994;28;835;-55
2022/05/11 01:09:16;;;;;;;;;;;;;;;21.99;44.11;100352.97;2083122;28;851;-55
2022/05/11 01:10:16;;;;;;;;;;;;;;;22.00;44.45;100354.72;2082988;28;952;-55
2022/05/11 01:11:17;;;;;;;;;;;;;;;22.00;43.96;100347.47;2082903;28;1968;-55
2022/05/11 01:12:19;;;;;;;;;;;;;;;21.99;44.21;100351.13;2082975;28;907;-55
2022/05/11 01:13:20;;;;;;;;;;;;;;;21.99;44.44;100351.13;2082993;28;960;-55
2022/05/11 01:14:22;;;;;;;;;;;;;;;21.99;43.95;100339.47;2083046;28;828;-55
2022/05/11 01:15:22;;;;;;;;;;;;;;;21.99;43.72;100339.47;2082231;28;938;-55
2022/05/11 01:16:23;;;;;;;;;;;;;;;21.98;44.31;100343.97;2082952;28;1005;-55
2022/05/11 01:17:24;;;;;;;;;;;;;;;21.98;43.81;100343.97;2090537;28;878;-55
2022/05/11 01:18:25;;;;;;;;;;;;;;;21.98;44.13;100337.72;2090544;28;804;-55
2022/05/11 01:19:27;;;;;;;;;;;;;;;21.97;43.82;100342.22;2082967;28;827;-55
2022/05/11 01:20:29;;;;;;;;;;;;;;;21.97;43.97;100333.28;2090444;28;1607;-55
2022/05/11 01:21:35;;;;;;;;;;;;;;;21.97;43.94;100336.84;2090460;28;981;-55
2022/05/11 01:22:39;;;;;;;;;;;;;;;21.97;43.90;100346.75;2082984;28;796;-55
2022/05/11 01:24:00;;;;;;;;;;;;;;;21.97;43.81;100339.53;2082890;28;851;-54
2022/05/11 01:25:03;;;;;;;;;;;;;;;21.98;44.16;100348.50;2082926;28;906;-55
2022/05/11 01:26:04;;;;;;;;;;;;;;;21.96;44.06;100345.88;2082948;28;910;-55
2022/05/11 01:27:23;;;;;;;;;;;;;;;21.97;43.97;100353.00;2082758;28;1296;-55
2022/05/11 01:28:23;;;;;;;;;;;;;;;21.96;43.77;100345.88;2082941;28;772;-55
2022/05/11 01:29:23;;;;;;;;;;;;;;;21.96;44.04;100347.72;2090537;28;1159;-55
2022/05/11 01:30:23;;;;;;;;;;;;;;;21.95;44.26;100344.13;2090553;28;891;-55
2022/05/11 01:31:23;;;;;;;;;;;;;;;21.96;43.82;100334.22;2082186;28;1918;-55
2022/05/11 01:32:24;;;;;;;;;;;;;;;21.96;43.83;100339.63;2082278;28;1242;-55
2022/05/11 01:33:24;;;;;;;;;;;;;;;21.95;43.84;100344.13;2083010;28;832;-55
2022/05/11 01:34:25;;;;;;;;;;;;;;;21.96;43.90;100343.19;2082900;28;977;-55
2022/05/11 01:35:34;;;;;;;;;;;;;;;21.96;44.66;100345.88;2082858;28;792;-55
2022/05/11 01:36:34;;;;;;;;;;;;;;;21.95;43.92;100337.88;2082943;28;843;-54
2022/05/11 01:37:39;;;;;;;;;;;;;;;21.94;44.73;100338.81;2082853;28;866;-55
2022/05/11 01:38:39;;;;;;;;;;;;;;;21.95;44.29;100348.66;2082865;28;1040;-55
2022/05/11 01:39:39;;;;;;;;;;;;;;;21.96;44.72;100353.09;2082910;28;831;-55
2022/05/11 01:40:40;;;;;;;;;;;;;;;21.95;43.84;100346.81;2082856;28;981;-55
2022/05/11 01:41:42;;;;;;;;;;;;;;;21.94;44.49;100336.97;2082851;28;853;-55
2022/05/11 01:42:42;;;;;;;;;;;;;;;21.96;43.99;100345.00;2082972;28;788;-55
2022/05/11 01:43:42;;;;;;;;;;;;;;;21.96;44.00;100335.09;2082815;28;895;-55
2022/05/11 01:44:42;;;;;;;;;;;;;;;21.95;43.85;100333.34;2082890;28;790;-55
2022/05/11 01:45:42;;;;;;;;;;;;;;;21.94;44.20;100328.88;2082855;28;921;-55
2022/05/11 01:46:44;;;;;;;;;;;;;;;21.94;43.82;100334.28;2082862;28;944;-55
2022/05/11 01:47:44;;;;;;;;;;;;;;;21.94;44.08;100330.72;2082841;28;767;-54
2022/05/11 01:48:44;;;;;;;;;;;;;;;21.94;43.83;100325.34;2082845;28;834;-55
2022/05/11 01:49:44;;;;;;;;;;;;;;;21.92;44.42;100322.69;2082816;28;1024;-54
2022/05/11 01:50:44;;;;;;;;;;;;;;;21.93;43.85;100321.75;2082740;28;1886;-55
2022/05/11 01:51:44;;;;;;;;;;;;;;;21.94;43.74;100330.72;2090407;28;1321;-55
2022/05/11 01:52:44;;;;;;;;;;;;;;;21.93;43.79;100324.44;2090450;28;1044;-55
2022/05/11 01:53:46;;;;;;;;;;;;;;;21.93;44.64;100321.75;2082833;28;989;-54
2022/05/11 01:54:46;;;;;;;;;;;;;;;21.92;44.54;100318.19;2082855;28;866;-55
2022/05/11 01:55:46;;;;;;;;;;;;;;;21.94;44.13;100322.63;2082820;28;854;-55
2022/05/11 01:56:46;;;;;;;;;;;;;;;21.94;44.28;100325.34;2082829;28;997;-55
2022/05/11 01:57:47;;;;;;;;;;;;;;;21.93;44.08;100319.03;2082817;28;776;-55
2022/05/11 01:58:48;;;;;;;;;;;;;;;21.94;44.10;100326.19;2090314;28;950;-55
2022/05/11 01:59:48;;;;;;;;;;;;;;;21.92;44.43;100325.38;2090349;28;997;-55
2022/05/11 02:00:48;;;;;;;;;;;;;;;21.91;44.56;100312.84;2082774;28;1036;-55
2022/05/11 02:01:48;;;;;;;;;;;;;;;21.91;43.87;100319.13;2082845;28;863;-55
2022/05/11 02:02:49;;;;;;;;;;;;;;;21.89;44.12;100314.75;2082772;28;877;-55
2022/05/11 02:03:49;;;;;;;;;;;;;;;21.92;44.42;100322.69;2082812;28;1025;-55
2022/05/11 02:08:46;;;;;;;;;;;;;;;21.93;43.81;100335.22;2082815;28;622;-55
2022/05/11 02:09:46;;;;;;;;;;;;;;;21.92;44.49;100338.88;2082815;28;914;-55
2022/05/11 02:10:46;;;;;;;;;;;;;;;21.92;43.86;100328.09;2082683;28;1886;-55
2022/05/11 02:11:46;;;;;;;;;;;;;;;21.92;44.47;100325.38;2082751;28;1052;-55
2022/05/11 02:12:47;;;;;;;;;;;;;;;21.92;44.58;100322.69;2082769;28;775;-54
2022/05/11 02:13:47;;;;;;;;;;;;;;;21.92;44.00;100333.47;2082825;28;771;-55
2022/05/11 02:14:47;;;;;;;;;;;;;;;21.91;44.54;100329.94;2082762;28;844;-55
2022/05/11 02:15:49;;;;;;;;;;;;;;;21.91;43.71;100327.22;2082718;28;1032;-55
2022/05/11 02:16:50;;;;;;;;;;;;;;;21.91;44.43;100329.03;2082754;28;815;-55
2022/05/11 02:17:50;;;;;;;;;;;;;;;21.91;43.71;100335.31;2082710;28;969;-55
2022/05/11 02:18:50;;;;;;;;;;;;;;;21.91;44.40;100329.94;2082781;28;973;-55
2022/05/11 02:19:51;;;;;;;;;;;;;;;21.91;44.25;100332.63;2082675;28;807;-55
2022/05/11 02:20:51;;;;;;;;;;;;;;;21.90;43.98;100333.56;2082823;28;965;-55
2022/05/11 02:21:51;;;;;;;;;;;;;;;21.92;44.51;100336.19;2082743;28;764;-55
2022/05/11 02:22:51;;;;;;;;;;;;;;;21.91;43.79;100335.31;2082709;28;767;-55
2022/05/11 02:23:52;;;;;;;;;;;;;;;21.91;43.98;100338.00;2082675;28;795;-55
2022/05/11 02:24:52;;;;;;;;;;;;;;;21.90;44.10;100340.75;2082684;28;788;-55
2022/05/11 02:25:53;;;;;;;;;;;;;;;21.91;44.01;100339.81;2082687;28;852;-55
2022/05/11 02:26:53;;;;;;;;;;;;;;;21.89;44.43;100339.91;2083377;28;1277;-55
2022/05/11 02:27:53;;;;;;;;;;;;;;;21.91;44.00;100334.44;2084250;28;969;-55
2022/05/11 02:28:55;;;;;;;;;;;;;;;21.92;44.49;100330.78;2084259;28;866;-55
2022/05/11 02:29:55;;;;;;;;;;;;;;;21.92;44.13;100337.06;2084236;28;826;-55
2022/05/11 02:30:57;;;;;;;;;;;;;;;21.91;43.98;100337.13;2084152;28;1906;-55
2022/05/11 02:31:57;;;;;;;;;;;;;;;21.91;43.99;100334.44;2084242;28;862;-55
2022/05/11 02:32:57;;;;;;;;;;;;;;;21.91;44.55;100339.81;2084264;28;890;-55
2022/05/11 02:33:57;;;;;;;;;;;;;;;21.91;43.93;100342.50;2084227;28;973;-55
2022/05/11 02:35:12;;;;;;;;;;;;;;;21.90;43.76;100335.38;2084180;28;787;-55
2022/05/11 02:36:13;;;;;;;;;;;;;;;21.91;44.25;100335.31;2084230;28;953;-55
2022/05/11 02:37:13;;;;;;;;;;;;;;;21.89;44.08;100331.81;2084070;28;1353;-54
2022/05/11 02:38:15;;;;;;;;;;;;;;;21.90;43.79;100335.38;2084145;28;748;-55
2022/05/11 02:39:15;;;;;;;;;;;;;;;21.91;43.93;100342.50;2084179;28;792;-55
2022/05/11 02:40:17;;;;;;;;;;;;;;;21.91;43.88;100339.81;2084243;28;1005;-55
2022/05/11 02:41:17;;;;;;;;;;;;;;;21.90;44.45;100332.69;2084122;28;861;-55
2022/05/11 02:42:18;;;;;;;;;;;;;;;21.91;43.88;100329.03;2084142;28;1049;-55
2022/05/11 02:43:19;;;;;;;;;;;;;;;21.89;43.93;100334.50;2084112;28;843;-55
2022/05/11 02:44:19;;;;;;;;;;;;;;;21.89;44.17;100329.13;2084145;28;830;-54
2022/05/11 02:45:20;;;;;;;;;;;;;;;21.90;44.61;100329.97;2084111;28;823;-55
2022/05/11 02:46:23;;;;;;;;;;;;;;;21.88;44.20;100335.47;2084050;28;1148;-55
2022/05/11 02:47:23;;;;;;;;;;;;;;;21.89;43.78;100339.91;2084041;28;917;-54
2022/05/11 02:48:24;;;;;;;;;;;;;;;21.89;43.81;100333.63;2084095;28;985;-55
2022/05/11 02:49:25;;;;;;;;;;;;;;;21.89;44.44;100339.00;2084126;28;819;-55
2022/05/11 02:50:27;;;;;;;;;;;;;;;21.89;44.39;100337.22;2084093;28;1029;-55
2022/05/11 02:51:27;;;;;;;;;;;;;;;21.88;43.65;100332.75;2083939;28;1953;-55
2022/05/11 02:52:27;;;;;;;;;;;;;;;21.89;43.73;100330.94;2084123;28;855;-54
2022/05/11 02:53:29;;;;;;;;;;;;;;;21.88;43.94;100345.34;2084091;28;768;-55
2022/05/11 02:54:29;;;;;;;;;;;;;;;21.88;43.74;100334.56;2084065;28;851;-55
2022/05/11 02:55:29;;;;;;;;;;;;;;;21.88;43.53;100334.56;2091614;28;946;-55
2022/05/11 02:56:29;;;;;;;;;;;;;;;21.89;44.29;100336.31;2091648;28;1001;-55
2022/05/11 02:57:29;;;;;;;;;;;;;;;21.88;44.37;100334.56;2084067;28;788;-55
2022/05/11 02:58:32;;;;;;;;;;;;;;;21.88;44.33;100329.19;2084016;28;716;-54
2022/05/11 02:59:32;;;;;;;;;;;;;;;21.86;43.78;100331.97;2083953;28;809;-54
2022/05/11 03:00:34;;;;;;;;;;;;;;;21.86;43.94;100271.75;2084007;28;835;-55
2022/05/11 03:01:34;;;;;;;;;;;;;;;21.86;44.62;100278.03;2083995;28;772;-55
2022/05/11 03:02:34;;;;;;;;;;;;;;;21.89;43.74;100279.69;2083945;28;1025;-55
2022/05/11 03:03:35;;;;;;;;;;;;;;;21.88;44.45;100280.63;2083941;28;782;-55
2022/05/11 03:04:35;;;;;;;;;;;;;;;21.90;43.81;100281.44;2083960;28;827;-55
2022/05/11 03:05:35;;;;;;;;;;;;;;;21.90;43.75;100274.25;2084010;28;852;-55
2022/05/11 03:06:36;;;;;;;;;;;;;;;21.90;44.03;100273.34;2083941;28;899;-55
2022/05/11 03:07:36;;;;;;;;;;;;;;;21.90;43.94;100324.59;2083894;28;993;-55
2022/05/11 03:08:38;;;;;;;;;;;;;;;21.91;44.51;100367.69;2091506;28;970;-55
2022/05/11 03:09:38;;;;;;;;;;;;;;;21.90;43.83;100344.34;2083241;28;1244;-55
2022/05/11 03:10:39;;;;;;;;;;;;;;;21.91;44.08;100339.81;2083289;28;1898;-55
2022/05/11 03:11:39;;;;;;;;;;;;;;;21.89;43.60;100321.03;2083868;28;816;-55
2022/05/11 03:12:39;;;;;;;;;;;;;;;21.89;43.94;100326.41;2091442;28;934;-55
2022/05/11 03:13:39;;;;;;;;;;;;;;;21.88;43.72;100321.97;2083124;28;2015;-54
2022/05/11 03:14:41;;;;;;;;;;;;;;;21.88;44.36;100316.59;2083305;28;1066;-55
2022/05/11 03:15:42;;;;;;;;;;;;;;;21.87;44.48;100320.22;2083901;28;887;-55
2022/05/11 03:16:43;;;;;;;;;;;;;;;21.87;43.64;100314.84;2083948;28;783;-55
2022/05/11 03:17:43;;;;;;;;;;;;;;;21.87;43.53;100312.13;2083857;28;830;-55
2022/05/11 03:18:43;;;;;;;;;;;;;;;21.88;44.39;100321.09;2091377;28;1387;-55
2022/05/11 03:19:44;;;;;;;;;;;;;;;21.88;43.65;100313.00;2091464;28;835;-55
2022/05/11 03:20:44;;;;;;;;;;;;;;;21.89;44.07;100320.13;2083916;28;862;-55
2022/05/11 03:21:44;;;;;;;;;;;;;;;21.88;43.69;100319.28;2083831;28;891;-55
2022/05/11 03:22:44;;;;;;;;;;;;;;;21.88;44.00;100326.47;2083867;28;981;-55
2022/05/11 03:23:44;;;;;;;;;;;;;;;21.87;44.46;100320.22;2083767;28;875;-54
2022/05/11 03:24:45;;;;;;;;;;;;;;;21.88;43.66;100313.00;2083881;28;1029;-55
2022/05/11 03:25:45;;;;;;;;;;;;;;;21.88;44.57;100319.28;2083809;28;772;-55
2022/05/11 03:26:45;;;;;;;;;;;;;;;21.87;44.32;100317.53;2083670;28;1257;-55
2022/05/11 03:27:45;;;;;;;;;;;;;;;21.88;44.42;100321.97;2083823;28;981;-54
2022/05/11 03:28:45;;;;;;;;;;;;;;;21.89;44.27;100322.84;2083783;28;1056;-55
2022/05/11 03:29:47;;;;;;;;;;;;;;;21.90;43.77;100320.09;2083898;28;823;-55
2022/05/11 03:30:47;;;;;;;;;;;;;;;21.90;44.44;100325.47;2083718;28;1918;-55
2022/05/11 03:34:37;;;;;;;;;;;;;;;21.87;44.30;100319.34;2083872;28;567;-55
2022/05/11 03:35:37;;;;;;;;;;;;;;;21.88;44.21;100334.56;2083773;28;941;-54
2022/05/11 03:36:37;;;;;;;;;;;;;;;21.86;44.60;100315.78;2083736;28;989;-55
2022/05/11 03:37:37;;;;;;;;;;;;;;;21.88;43.56;100323.78;2083755;28;748;-55
2022/05/11 03:38:37;;;;;;;;;;;;;;;21.87;44.38;100325.63;2082934;28;865;-55
2022/05/11 03:39:38;;;;;;;;;;;;;;;21.87;44.37;100322.91;2083690;28;977;-54
2022/05/11 03:40:38;;;;;;;;;;;;;;;21.88;44.17;100321.97;2083702;28;1036;-55
2022/05/11 03:41:38;;;;;;;;;;;;;;;21.88;44.53;100326.47;2083697;28;862;-55
2022/05/11 03:42:39;;;;;;;;;;;;;;;21.86;43.71;100328.38;2083703;28;1055;-55
2022/05/11 03:43:40;;;;;;;;;;;;;;;21.86;44.32;100323.88;2083660;28;850;-55
2022/05/11 03:44:40;;;;;;;;;;;;;;;21.86;44.39;100322.97;2083668;28;863;-54
2022/05/11 03:45:40;;;;;;;;;;;;;;;21.88;44.10;100334.56;2083663;28;881;-55
2022/05/11 03:46:40;;;;;;;;;;;;;;;21.88;44.04;100335.47;2083602;28;819;-55
2022/05/11 03:47:41;;;;;;;;;;;;;;;21.88;44.36;100335.47;2083646;28;819;-54
2022/05/11 03:48:41;;;;;;;;;;;;;;;21.88;44.39;100340.84;2083621;28;823;-55
2022/05/11 03:49:42;;;;;;;;;;;;;;;21.89;43.95;100344.41;2083816;28;826;-54
2022/05/11 03:50:42;;;;;;;;;;;;;;;21.88;43.77;100335.47;2083528;28;1898;-57
2022/05/11 03:51:42;;;;;;;;;;;;;;;21.87;44.05;100331.00;2083580;28;957;-55
2022/05/11 03:52:42;;;;;;;;;;;;;;;21.88;44.31;100338.16;2083609;28;977;-56
2022/05/11 03:53:42;;;;;;;;;;;;;;;21.88;43.89;100331.88;2083614;28;791;-55
2022/05/11 03:54:42;;;;;;;;;;;;;;;21.87;43.88;100341.78;2083583;28;976;-56
2022/05/11 03:55:43;;;;;;;;;;;;;;;21.87;44.48;100343.59;2083557;28;662;-56
2022/05/11 03:56:43;;;;;;;;;;;;;;;21.88;43.89;100342.66;2083589;28;820;-55
2022/05/11 03:57:43;;;;;;;;;;;;;;;21.88;44.06;100337.25;2083605;28;874;-55
2022/05/11 03:58:44;;;;;;;;;;;;;;;21.87;44.05;100344.50;2083536;28;894;-56
2022/05/11 03:59:45;;;;;;;;;;;;;;;21.86;43.63;100336.47;2083550;28;791;-55
2022/05/11 04:00:45;;;;;;;;;;;;;;;21.86;44.48;100345.44;2083542;28;775;-55
2022/05/11 04:01:45;;;;;;;;;;;;;;;22.68;42.73;100343.34;2083534;28;898;-55
2022/05/11 04:02:45;;;;;;;;;;;;;;;23.42;40.50;100335.13;2091093;28;1016;-55
2022/05/11 04:03:46;;;;;;;;;;;;;;;23.94;39.75;100334.13;2091086;28;914;-55
2022/05/11 04:04:46;;;;;;;;;;;;;;;24.20;39.02;100329.97;2083471;28;848;-54
2022/05/11 04:05:46;;;;;;;;;;;;;;;24.56;38.38;100333.34;2083483;28;997;-55
2022/05/11 04:06:46;;;;;;;;;;;;;;;24.79;37.17;100339.25;2083479;28;1008;-55
2022/05/11 04:07:46;;;;;;;;;;;;;;;24.95;36.85;100336.53;2083486;28;671;-55
2022/05/11 04:08:46;;;;;;;;;;;;;;;25.11;37.14;100341.91;2083442;28;788;-55
2022/05/11 04:09:47;;;;;;;;;;;;;;;25.37;36.23;100336.69;2083492;28;906;-54
2022/05/11 04:10:47;;;;;;;;;;;;;;;25.56;35.88;100334.63;2083343;28;1951;-55
2022/05/11 04:11:47;;;;;;;;;;;;;;;25.72;35.19;100336.38;2083474;28;925;-55
2022/05/11 04:12:47;;;;;;;;;;;;;;;25.84;35.46;100334.72;2083405;28;811;-55
2022/05/11 04:13:48;;;;;;;;;;;;;;;26.03;34.43;100347.97;2083413;28;989;-54
2022/05/11 04:14:48;;;;;;;;;;;;;;;26.25;34.18;100342.06;2091036;28;867;-55
2022/05/11 04:15:49;;;;;;;;;;;;;;;26.17;34.58;100325.44;2091032;28;843;-55
2022/05/11 04:16:53;;;;;;;;;;;;;;;26.37;34.16;100339.50;2083477;28;815;-54
2022/05/11 04:17:54;;;;;;;;;;;;;;;26.53;33.92;100336.63;2083403;28;780;-54
2022/05/11 04:18:54;;;;;;;;;;;;;;;26.61;33.33;100334.28;2083376;28;974;-55
2022/05/11 04:19:55;;;;;;;;;;;;;;;26.67;33.30;100336.59;2083415;28;768;-55
2022/05/11 04:20:55;;;;;;;;;;;;;;;26.88;33.27;100344.31;2083308;28;1072;-54
2022/05/11 04:21:56;;;;;;;;;;;;;;;27.00;33.09;100337.16;2083367;28;790;-54
2022/05/11 04:22:56;;;;;;;;;;;;;;;27.02;33.15;100348.78;2083309;28;914;-55
2022/05/11 04:23:56;;;;;;;;;;;;;;;27.13;32.72;100346.19;2090908;28;946;-54
2022/05/11 04:24:57;;;;;;;;;;;;;;;27.16;32.36;100345.09;2090967;28;1187;-54
2022/05/11 04:25:57;;;;;;;;;;;;;;;27.12;32.51;100349.00;2083327;28;854;-54
2022/05/11 04:26:58;;;;;;;;;;;;;;;27.33;32.57;100349.41;2083175;28;1599;-54
2022/05/11 04:27:58;;;;;;;;;;;;;;;27.44;31.64;100349.47;2083353;28;878;-55
2022/05/11 04:28:58;;;;;;;;;;;;;;;27.44;32.04;100356.78;2083340;28;835;-55
2022/05/11 04:30:00;;;;;;;;;;;;;;;27.51;31.90;100348.09;2083247;28;864;-54
2022/05/11 04:31:04;;;;;;;;;;;;;;;27.62;32.01;100341.03;2083261;28;1914;-54
2022/05/11 04:32:04;;;;;;;;;;;;;;;27.76;31.73;100343.66;2083318;28;941;-55
2022/05/11 04:33:06;;;;;;;;;;;;;;;27.73;31.58;100343.88;2083225;28;981;-55
2022/05/11 04:34:06;;;;;;;;;;;;;;;27.74;31.64;100342.88;2083257;28;811;-55
2022/05/11 04:35:07;;;;;;;;;;;;;;;27.97;30.84;100343.06;2083248;28;835;-54
2022/05/11 04:36:08;;;;;;;;;;;;;;;28.04;30.72;100346.22;2083198;28;1127;-54
2022/05/11 04:37:09;;;;;;;;;;;;;;;28.04;31.12;100344.34;2083184;28;1305;-55
2022/05/11 04:38:09;;;;;;;;;;;;;;;28.06;30.89;100345.09;2083208;28;839;-55
2022/05/11 04:39:09;;;;;;;;;;;;;;;28.06;31.23;100339.66;2083250;28;831;-55
2022/05/11 04:40:11;;;;;;;;;;;;;;;28.10;31.27;100345.78;2083218;28;817;-55
2022/05/11 04:41:11;;;;;;;;;;;;;;;28.18;30.81;100348.84;2082709;28;1652;-56
2022/05/11 04:42:11;;;;;;;;;;;;;;;28.09;30.93;100344.88;2082579;28;683;-55
2022/05/11 04:43:12;;;;;;;;;;;;;;;28.11;30.59;100347.50;2083168;28;847;-55
2022/05/11 04:44:12;;;;;;;;;;;;;;;28.12;30.54;100343.84;2083168;28;867;-55
2022/05/11 04:45:13;;;;;;;;;;;;;;;28.22;31.00;100342.19;2083211;28;768;-55
2022/05/11 04:46:13;;;;;;;;;;;;;;;28.42;30.44;100338.94;2083236;28;780;-55
2022/05/11 04:47:14;;;;;;;;;;;;;;;28.53;30.23;100344.47;2090685;28;836;-55
2022/05/11 04:48:15;;;;;;;;;;;;;;;28.49;30.42;100341.09;2090800;28;894;-55
2022/05/11 04:49:19;;;;;;;;;;;;;;;28.45;30.48;100342.28;2083100;28;997;-55
2022/05/11 04:50:19;;;;;;;;;;;;;;;28.52;29.98;100342.72;2083133;28;788;-55
2022/05/11 04:51:19;;;;;;;;;;;;;;;28.52;30.47;100340.84;2083025;28;1894;-54
2022/05/11 04:52:20;;;;;;;;;;;;;;;28.57;30.83;100342.38;2083124;28;870;-55
2022/05/11 04:53:20;;;;;;;;;;;;;;;28.60;29.94;100344.84;2083270;28;729;-55
2022/05/11 04:54:20;;;;;;;;;;;;;;;28.67;30.33;100344.25;2090644;28;1572;-55
2022/05/11 04:55:20;;;;;;;;;;;;;;;28.73;29.74;100342.06;2090663;28;752;-55
2022/05/11 04:56:20;;;;;;;;;;;;;;;28.79;29.52;100342.50;2083082;28;788;-56
2022/05/11 04:57:21;;;;;;;;;;;;;;;28.84;29.56;100345.75;2083090;28;881;-55
2022/05/11 04:58:21;;;;;;;;;;;;;;;28.94;29.80;100343.19;2083131;28;792;-55
2022/05/11 04:59:22;;;;;;;;;;;;;;;28.78;30.09;100346.22;2083159;28;902;-55
2022/05/11 05:00:22;;;;;;;;;;;;;;;28.81;29.44;100356.00;2090614;28;773;-55
2022/05/11 05:01:22;;;;;;;;;;;;;;;28.75;29.83;100346.44;2090671;28;985;-55
2022/05/11 05:02:23;;;;;;;;;;;;;;;28.84;29.77;100350.31;2083130;28;768;-55
2022/05/11 05:03:24;;;;;;;;;;;;;;;28.72;30.09;100345.78;2083065;28;787;-55
2022/05/11 05:04:25;;;;;;;;;;;;;;;28.76;29.38;100352.75;2083014;28;1056;-55
2022/05/11 05:05:25;;;;;;;;;;;;;;;28.83;29.83;100360.38;2083030;28;1001;-55
2022/05/11 05:06:27;;;;;;;;;;;;;;;28.85;29.61;100355.66;2083043;28;1005;-55
2022/05/11 05:07:28;;;;;;;;;;;;;;;28.84;29.18;100351.22;2083025;28;859;-55
2022/05/11 05:08:28;;;;;;;;;;;;;;;28.87;29.99;100354.66;2083009;28;855;-55
2022/05/11 05:09:28;;;;;;;;;;;;;;;28.95;29.69;100360.41;2082987;28;977;-55
2022/05/11 05:10:28;;;;;;;;;;;;;;;29.08;29.17;100352.16;2083014;28;1044;-55
2022/05/11 05:11:29;;;;;;;;;;;;;;;28.92;29.85;100353.34;2082961;28;1894;-55
2022/05/11 05:12:30;;;;;;;;;;;;;;;28.84;29.58;100356.66;2082326;28;883;-56
2022/05/11 05:13:30;;;;;;;;;;;;;;;28.99;29.55;100357.34;2082376;28;903;-55
2022/05/11 05:14:30;;;;;;;;;;;;;;;28.92;29.95;100356.06;2082945;28;986;-55
2022/05/11 05:15:31;;;;;;;;;;;;;;;29.02;29.16;100348.03;2082964;28;847;-55
2022/05/11 05:16:34;;;;;;;;;;;;;;;29.11;29.11;100346.47;2082957;28;1021;-55
2022/05/11 05:17:34;;;;;;;;;;;;;;;29.32;29.08;100351.22;2082922;28;875;-55
2022/05/11 05:18:35;;;;;;;;;;;;;;;29.21;28.86;100354.78;2082984;28;981;-55
2022/05/11 05:19:40;;;;;;;;;;;;;;;29.23;28.79;100350.94;2083056;28;758;-55
2022/05/11 05:20:40;;;;;;;;;;;;;;;29.24;28.83;100349.09;2082975;28;796;-55
2022/05/11 05:21:41;;;;;;;;;;;;;;;29.23;29.11;100350.09;2082927;28;863;-55
2022/05/11 05:22:41;;;;;;;;;;;;;;;29.11;28.77;100358.22;2083021;28;865;-55
2022/05/11 05:23:41;;;;;;;;;;;;;;;29.06;29.27;100356.88;2082938;28;773;-55
2022/05/11 05:24:42;;;;;;;;;;;;;;;29.23;28.95;100353.66;2082912;28;851;-55
2022/05/11 05:25:42;;;;;;;;;;;;;;;29.22;28.79;100357.38;2082934;28;925;-56
2022/05/11 05:26:42;;;;;;;;;;;;;;;29.25;29.02;100353.56;2082732;28;1266;-55
2022/05/11 05:27:43;;;;;;;;;;;;;;;29.18;29.48;100357.75;2082916;28;1029;-55
2022/05/11 05:31:21;;;;;;;;;;;;;;;29.09;28.80;100354.75;2082983;28;1906;-55